< < Back
Terminal Aerodrome Forecast


Current Version              Previous Versions:   1  2  3  4  5  6  7  8  9  

Terminal Aerodrome Forecast

622
FTUS42 KFFC 271700
TAFMCN
TAF
KMCN 271725Z 2718/2818 02006KT P6SM FEW060
     FM280100 00000KT P6SM SKC
     FM281400 23004KT P6SM FEW040=

Latest METAR

453
SAUS80 KWBC 280300
MTRMCN
METAR KMCN 280253Z AUTO 29003KT 10SM CLR 19/18 A3002 RMK AO2 SLP162
T01940183 53009 TSNO $


USA.gov is the U.S. government's official web portal to all federal, state and local government web resources and services.